Time;durP1;ratioP1;P1;durP2;ratioP2;P2;SDS_P1;SDS_P2;PMS_P1;PMS_P2;Temp;Humidity;BMP_temperature;BMP_pressure;BME280_temperature;BME280_humidity;BME280_pressure;Samples;Min_cycle;Max_cycle;Signal;HPM_P1;HPM_P2
2023/08/18 00:01:19;;;;;;;;;;;;;;;18.26;100.00;101710.63;5064285;28;19984;-60
2023/08/18 00:03:44;;;;;;;;;;;;;;;18.28;100.00;101710.66;5049981;28;19909;-60
2023/08/18 00:06:09;;;;;;;;;;;;;;;18.22;100.00;101711.53;5054891;28;19909;-60
2023/08/18 00:08:35;;;;;;;;;;;;;;;18.19;100.00;101708.84;5058469;28;19908;-60
2023/08/18 00:11:01;;;;;;;;;;;;;;;18.19;100.00;101698.28;5044287;28;19911;-60
2023/08/18 00:13:26;;;;;;;;;;;;;;;18.19;100.00;101707.09;5055351;28;19915;-60
2023/08/18 00:15:51;;;;;;;;;;;;;;;18.19;100.00;101700.94;5054795;28;20027;-60
2023/08/18 00:18:16;;;;;;;;;;;;;;;18.20;100.00;101703.56;5057366;28;19908;-60
2023/08/18 00:20:41;;;;;;;;;;;;;;;18.17;100.00;101706.19;5055632;28;19928;-60
2023/08/18 00:23:07;;;;;;;;;;;;;;;18.17;100.00;101702.69;5058700;28;19908;-60
2023/08/18 00:25:32;;;;;;;;;;;;;;;18.16;100.00;101699.19;5055777;28;19909;-60
2023/08/18 00:27:57;;;;;;;;;;;;;;;18.11;100.00;101695.63;5055259;28;19959;-59
2023/08/18 00:30:24;;;;;;;;;;;;;;;18.09;100.00;101697.38;5055388;28;20070;-60
2023/08/18 00:32:50;;;;;;;;;;;;;;;18.06;100.00;101694.69;5064228;28;19924;-60
2023/08/18 00:35:15;;;;;;;;;;;;;;;18.04;100.00;101699.09;5063128;28;19908;-60
2023/08/18 00:37:42;;;;;;;;;;;;;;;18.05;100.00;101691.19;5062990;28;19931;-60
2023/08/18 00:40:09;;;;;;;;;;;;;;;17.98;100.00;101699.06;5056773;28;19927;-60
2023/08/18 00:42:34;;;;;;;;;;;;;;;17.99;100.00;101693.78;5058318;28;19909;-60
2023/08/18 00:44:59;;;;;;;;;;;;;;;17.96;100.00;101690.22;5053586;28;19909;-60
2023/08/18 00:47:24;;;;;;;;;;;;;;;17.97;100.00;101694.66;5062115;28;19944;-60
2023/08/18 00:49:50;;;;;;;;;;;;;;;17.96;100.00;101684.97;5060302;28;19967;-60
2023/08/18 00:52:18;;;;;;;;;;;;;;;17.97;100.00;101692.88;5051633;28;19909;-60
2023/08/18 00:54:43;;;;;;;;;;;;;;;17.99;100.00;101693.78;5056285;28;20062;-60
2023/08/18 00:57:08;;;;;;;;;;;;;;;17.98;100.00;101689.38;5057487;28;19909;-60
2023/08/18 00:59:33;;;;;;;;;;;;;;;17.97;100.00;101692.88;5055374;28;20047;-60
2023/08/18 01:02:02;;;;;;;;;;;;;;;17.95;100.00;101691.13;5056820;28;19932;-60
2023/08/18 01:04:28;;;;;;;;;;;;;;;17.86;100.00;101690.16;5057293;28;20139;-60
2023/08/18 01:06:53;;;;;;;;;;;;;;;17.83;100.00;101686.59;5056027;28;19916;-60
2023/08/18 01:09:19;;;;;;;;;;;;;;;17.78;100.00;101686.56;5055745;28;19966;-59
2023/08/18 01:11:54;;;;;;;;;;;;;;;17.75;100.00;101681.28;5057447;28;19916;-60
2023/08/18 01:14:43;;;;;;;;;;;;;;;17.74;100.00;101682.13;5056740;28;19908;-60
2023/08/18 01:17:25;;;;;;;;;;;;;;;17.76;100.00;101677.78;5055377;28;20143;-60
2023/08/18 01:19:51;;;;;;;;;;;;;;;17.77;100.00;101689.19;5056885;28;19997;-60
2023/08/18 01:22:16;;;;;;;;;;;;;;;17.77;100.00;101683.91;5056824;28;19931;-60
2023/08/18 01:24:42;;;;;;;;;;;;;;;17.74;100.00;101687.41;5057031;28;19982;-60
2023/08/18 01:27:07;;;;;;;;;;;;;;;17.70;100.00;101678.63;5056790;28;19908;-60
2023/08/18 01:29:32;;;;;;;;;;;;;;;17.65;100.00;101669.78;5056422;28;19983;-60
2023/08/18 01:31:59;;;;;;;;;;;;;;;17.69;100.00;101665.44;5050017;28;19947;-60
2023/08/18 01:34:27;;;;;;;;;;;;;;;17.71;100.00;101668.94;5060160;28;20140;-60
2023/08/18 01:36:54;;;;;;;;;;;;;;;17.74;100.00;101666.31;5058620;28;20007;-60
2023/08/18 01:39:21;;;;;;;;;;;;;;;17.76;100.00;101661.09;5054523;28;19916;-60
2023/08/18 01:41:49;;;;;;;;;;;;;;;17.76;100.00;101659.31;5061174;28;19908;-60
2023/08/18 01:44:15;;;;;;;;;;;;;;;17.79;100.00;101655.84;5034267;28;19916;-60
2023/08/18 01:46:40;;;;;;;;;;;;;;;17.81;100.00;101649.69;5056157;28;19909;-60
2023/08/18 01:49:05;;;;;;;;;;;;;;;17.80;100.00;101647.03;5062531;28;19904;-60
2023/08/18 01:51:30;;;;;;;;;;;;;;;17.79;100.00;101656.72;5060062;28;20140;-60
2023/08/18 01:53:55;;;;;;;;;;;;;;;17.79;100.00;101656.72;5061459;28;20272;-60
2023/08/18 01:56:21;;;;;;;;;;;;;;;17.75;100.00;101647.00;5062846;28;19952;-60
2023/08/18 01:58:46;;;;;;;;;;;;;;;17.74;100.00;101653.16;5055533;28;19927;-60
2023/08/18 02:01:11;;;;;;;;;;;;;;;17.73;100.00;101643.50;5061875;28;20077;-60
2023/08/18 02:03:36;;;;;;;;;;;;;;;17.72;100.00;101647.00;5055861;28;20015;-60
2023/08/18 02:06:01;;;;;;;;;;;;;;;17.72;100.00;101644.34;5053774;28;19905;-60
2023/08/18 02:08:27;;;;;;;;;;;;;;;17.73;100.00;101648.75;5063415;28;20007;-60
2023/08/18 02:10:52;;;;;;;;;;;;;;;17.77;100.00;101647.91;5053008;28;19924;-60
2023/08/18 02:13:17;;;;;;;;;;;;;;;17.70;100.00;101643.47;5046244;28;19928;-60
2023/08/18 02:15:46;;;;;;;;;;;;;;;17.67;100.00;101636.44;5061185;28;19947;-60
2023/08/18 02:18:11;;;;;;;;;;;;;;;17.67;100.00;101646.06;5052853;28;19916;-60
2023/08/18 02:20:38;;;;;;;;;;;;;;;17.66;100.00;101639.91;5053438;28;20168;-60
2023/08/18 02:23:03;;;;;;;;;;;;;;;17.63;100.00;101645.19;5058499;28;19984;-60
2023/08/18 02:25:30;;;;;;;;;;;;;;;17.59;100.00;101637.25;5059199;28;19928;-60
2023/08/18 02:27:55;;;;;;;;;;;;;;;17.59;100.00;101637.25;5051814;28;19924;-60
2023/08/18 02:30:20;;;;;;;;;;;;;;;17.58;100.00;101638.09;5056364;28;20112;-60
2023/08/18 02:32:45;;;;;;;;;;;;;;;17.56;100.00;101633.69;5050348;28;19912;-60
2023/08/18 02:35:11;;;;;;;;;;;;;;;17.54;100.00;101632.81;5029495;28;19990;-60
2023/08/18 02:37:38;;;;;;;;;;;;;;;17.52;100.00;101633.66;5035177;28;20032;-60
2023/08/18 02:40:05;;;;;;;;;;;;;;;17.53;100.00;101636.31;5037004;28;20186;-60
2023/08/18 02:42:30;;;;;;;;;;;;;;;17.53;100.00;101633.69;5040255;28;19968;-60
2023/08/18 02:44:55;;;;;;;;;;;;;;;17.54;100.00;101629.31;5038839;28;20048;-60
2023/08/18 02:47:20;;;;;;;;;;;;;;;17.53;100.00;101631.03;5031988;28;19909;-60
2023/08/18 02:49:47;;;;;;;;;;;;;;;17.50;100.00;101628.38;5033009;28;19976;-59
2023/08/18 02:52:12;;;;;;;;;;;;;;;17.55;100.00;101631.06;5032173;28;19915;-60
2023/08/18 02:54:38;;;;;;;;;;;;;;;17.51;100.00;101631.91;5029274;28;19922;-60
2023/08/18 02:57:03;;;;;;;;;;;;;;;17.48;100.00;101635.41;5037344;28;19987;-59
2023/08/18 02:59:28;;;;;;;;;;;;;;;17.47;100.00;101627.50;5026964;28;19916;-60
2023/08/18 03:01:54;;;;;;;;;;;;;;;17.46;100.00;101625.72;5038141;28;19909;-60
2023/08/18 03:04:19;;;;;;;;;;;;;;;17.47;100.00;101622.22;5039547;28;19909;-60
2023/08/18 03:06:44;;;;;;;;;;;;;;;17.44;100.00;101623.09;5031042;28;19909;-60
2023/08/18 03:09:09;;;;;;;;;;;;;;;17.41;100.00;101627.44;5035958;28;19931;-60
2023/08/18 03:11:35;;;;;;;;;;;;;;;17.34;100.00;101618.63;5033578;28;20233;-60
2023/08/18 03:14:00;;;;;;;;;;;;;;;17.32;100.00;101622.97;5038763;28;19909;-60
2023/08/18 03:16:25;;;;;;;;;;;;;;;17.26;100.00;101617.66;5037999;28;20035;-60
2023/08/18 03:18:50;;;;;;;;;;;;;;;17.23;100.00;101625.53;5040648;28;19976;-60
2023/08/18 03:21:16;;;;;;;;;;;;;;;17.21;100.00;101623.75;5035413;28;19926;-60
2023/08/18 03:23:41;;;;;;;;;;;;;;;17.18;100.00;101625.50;5040393;28;19916;-60
2023/08/18 03:26:06;;;;;;;;;;;;;;;17.13;100.00;101622.84;5031906;28;19941;-60
2023/08/18 03:28:35;;;;;;;;;;;;;;;17.11;100.00;101618.41;5039885;28;20155;-60
2023/08/18 03:31:01;;;;;;;;;;;;;;;17.09;100.00;101621.03;5030503;28;19932;-60
2023/08/18 03:33:27;;;;;;;;;;;;;;;17.10;100.00;101617.50;5026639;28;19909;-60
2023/08/18 03:35:52;;;;;;;;;;;;;;;17.13;100.00;101616.66;5048428;28;19971;-60
2023/08/18 03:38:17;;;;;;;;;;;;;;;17.10;100.00;101616.63;5058785;28;19932;-60
2023/08/18 03:40:43;;;;;;;;;;;;;;;17.10;100.00;101620.16;5054851;28;19962;-60
2023/08/18 03:43:08;;;;;;;;;;;;;;;17.02;100.00;101614.81;5055185;28;19908;-60
2023/08/18 03:45:33;;;;;;;;;;;;;;;17.00;100.00;101616.56;5057236;28;19975;-60
2023/08/18 03:47:59;;;;;;;;;;;;;;;16.99;100.00;101617.44;5061859;28;19912;-60
2023/08/18 03:50:24;;;;;;;;;;;;;;;16.93;100.00;101624.38;5048841;28;19959;-60
2023/08/18 03:52:49;;;;;;;;;;;;;;;16.92;100.00;101622.63;5049577;28;20139;-60
2023/08/18 03:55:14;;;;;;;;;;;;;;;16.96;100.00;101612.13;5047534;28;19913;-60
2023/08/18 03:57:39;;;;;;;;;;;;;;;16.91;100.00;101620.84;5054951;28;20078;-59
2023/08/18 04:00:09;;;;;;;;;;;;;;;16.90;100.00;101616.44;5046121;28;19909;-60
2023/08/18 04:02:34;;;;;;;;;;;;;;;16.91;100.00;101618.22;5055593;28;20051;-60
2023/08/18 04:04:59;;;;;;;;;;;;;;;16.91;100.00;101624.34;5062803;28;19911;-60
2023/08/18 04:07:24;;;;;;;;;;;;;;;16.94;100.00;101621.75;5048158;28;19972;-60
2023/08/18 04:09:49;;;;;;;;;;;;;;;16.95;100.00;101612.13;5065272;28;19905;-60
2023/08/18 04:12:15;;;;;;;;;;;;;;;16.93;100.00;101611.22;5056276;28;19909;-60
2023/08/18 04:14:40;;;;;;;;;;;;;;;16.93;100.00;101619.09;5059508;28;19909;-60
2023/08/18 04:17:05;;;;;;;;;;;;;;;16.92;100.00;101625.25;5056124;28;19928;-60
2023/08/18 04:19:30;;;;;;;;;;;;;;;16.93;100.00;101625.28;5049331;28;19913;-60
2023/08/18 04:21:55;;;;;;;;;;;;;;;16.92;100.00;101620.88;5061146;28;19958;-60
2023/08/18 04:24:21;;;;;;;;;;;;;;;16.88;100.00;101620.84;5059772;28;20099;-60
2023/08/18 04:26:47;;;;;;;;;;;;;;;16.88;100.00;101613.81;5053923;28;20138;-60
2023/08/18 04:29:12;;;;;;;;;;;;;;;16.86;100.00;101603.22;5055029;28;19909;-60
2023/08/18 04:31:37;;;;;;;;;;;;;;;16.88;100.00;101605.03;5053970;28;19954;-60
2023/08/18 04:34:03;;;;;;;;;;;;;;;16.85;100.00;101611.13;5063150;28;20022;-60
2023/08/18 04:36:28;;;;;;;;;;;;;;;16.84;100.00;101604.97;5063142;28;20105;-60
2023/08/18 04:38:54;;;;;;;;;;;;;;;16.84;100.00;101607.59;5057569;28;20140;-60
2023/08/18 04:41:20;;;;;;;;;;;;;;;16.84;100.00;101604.06;5053232;28;19913;-60
2023/08/18 04:43:45;;;;;;;;;;;;;;;16.84;100.00;101597.09;5055356;28;20093;-60
2023/08/18 04:46:10;;;;;;;;;;;;;;;16.84;100.00;101610.25;5052487;28;20122;-60
2023/08/18 04:48:35;;;;;;;;;;;;;;;16.83;100.00;101610.22;5055313;28;19909;-60
2023/08/18 04:51:01;;;;;;;;;;;;;;;16.76;100.00;101614.53;5062184;28;19912;-60
2023/08/18 04:53:26;;;;;;;;;;;;;;;16.75;100.00;101607.50;5060674;28;19938;-60
2023/08/18 04:55:51;;;;;;;;;;;;;;;16.76;100.00;101614.53;5056903;28;19908;-60
2023/08/18 04:58:17;;;;;;;;;;;;;;;16.78;100.00;101619.81;5057934;28;19917;-60
2023/08/18 05:00:42;;;;;;;;;;;;;;;16.73;100.00;101617.13;5058978;28;20102;-60
2023/08/18 05:03:08;;;;;;;;;;;;;;;16.73;100.00;101614.50;5057082;28;20091;-60
2023/08/18 05:05:33;;;;;;;;;;;;;;;16.76;100.00;101618.94;5056399;28;19970;-60
2023/08/18 05:07:59;;;;;;;;;;;;;;;16.75;100.00;101618.03;5039924;28;19935;-60
2023/08/18 05:10:24;;;;;;;;;;;;;;;16.76;100.00;101619.78;5057900;28;19920;-60
2023/08/18 05:12:49;;;;;;;;;;;;;;;16.80;100.00;101613.69;5056533;28;20000;-60
2023/08/18 05:15:16;;;;;;;;;;;;;;;16.82;100.00;101617.22;5055289;28;19931;-60
2023/08/18 05:17:41;;;;;;;;;;;;;;;16.83;100.00;101603.19;5057329;28;19909;-60
2023/08/18 05:20:07;;;;;;;;;;;;;;;16.85;100.00;101608.47;5055587;28;19983;-60
2023/08/18 05:22:32;;;;;;;;;;;;;;;16.87;100.00;101598.84;5056898;28;19983;-60
2023/08/18 05:24:58;;;;;;;;;;;;;;;16.85;100.00;101590.94;5056657;28;21461;-60
2023/08/18 05:27:24;;;;;;;;;;;;;;;16.85;100.00;101590.94;5057667;28;19959;-60
2023/08/18 05:29:51;;;;;;;;;;;;;;;16.83;100.00;101584.78;5064252;28;19909;-60
2023/08/18 05:32:16;;;;;;;;;;;;;;;16.82;100.00;101593.53;5053561;28;19905;-60
2023/08/18 05:34:41;;;;;;;;;;;;;;;16.82;100.00;101601.44;5042502;28;20070;-60
2023/08/18 05:37:06;;;;;;;;;;;;;;;16.84;100.00;101604.97;5057484;28;19908;-60
2023/08/18 05:39:31;;;;;;;;;;;;;;;16.85;100.00;101590.94;5057371;28;19913;-60
2023/08/18 05:41:57;;;;;;;;;;;;;;;16.85;100.00;101593.56;5055444;28;19970;-60
2023/08/18 05:44:22;;;;;;;;;;;;;;;16.88;100.00;101597.13;5056871;28;19916;-60
2023/08/18 05:46:47;;;;;;;;;;;;;;;16.91;100.00;101597.16;5056360;28;19908;-60
2023/08/18 05:49:12;;;;;;;;;;;;;;;16.92;100.00;101602.44;5061770;28;19912;-60
2023/08/18 05:51:42;;;;;;;;;;;;;;;16.95;100.00;101602.47;5048366;28;19917;-60
2023/08/18 05:54:08;;;;;;;;;;;;;;;16.97;100.00;101605.13;5054700;28;19932;-60
2023/08/18 05:56:33;;;;;;;;;;;;;;;16.96;100.00;101598.97;5052844;28;19976;-60
2023/08/18 05:58:58;;;;;;;;;;;;;;;16.97;100.00;101598.09;5052988;28;19916;-60
2023/08/18 06:01:25;;;;;;;;;;;;;;;17.00;100.00;101594.59;5059212;28;19952;-60
2023/08/18 06:03:50;;;;;;;;;;;;;;;17.02;100.00;101603.41;5048203;28;19920;-60
2023/08/18 06:06:15;;;;;;;;;;;;;;;17.02;100.00;101598.16;5057391;28;19909;-60
2023/08/18 06:08:40;;;;;;;;;;;;;;;17.03;100.00;101607.78;5051974;28;20222;-60
2023/08/18 06:11:06;;;;;;;;;;;;;;;17.04;100.00;101601.66;5063006;28;19980;-60
2023/08/18 06:13:31;;;;;;;;;;;;;;;17.07;100.00;101612.22;5062759;28;19909;-60
2023/08/18 06:15:56;;;;;;;;;;;;;;;17.08;100.00;101621.03;5059026;28;19920;-60
2023/08/18 06:18:21;;;;;;;;;;;;;;;17.04;100.00;101612.19;5057280;28;19909;-60
2023/08/18 06:20:47;;;;;;;;;;;;;;;17.04;100.00;101617.47;5062483;28;19919;-60
2023/08/18 06:23:12;;;;;;;;;;;;;;;17.04;100.00;101617.47;5059994;28;20228;-60
2023/08/18 06:25:38;;;;;;;;;;;;;;;17.03;100.00;101611.31;5058971;28;19909;-60
2023/08/18 06:28:04;;;;;;;;;;;;;;;17.02;100.00;101608.69;5057341;28;19956;-60
2023/08/18 06:30:30;;;;;;;;;;;;;;;17.01;100.00;101601.66;5051462;28;19919;-60
2023/08/18 06:32:55;;;;;;;;;;;;;;;17.04;100.00;101599.91;5051884;28;19980;-60
2023/08/18 06:35:20;;;;;;;;;;;;;;;17.00;100.00;101599.88;5057497;28;19915;-60
2023/08/18 06:37:45;;;;;;;;;;;;;;;17.01;100.00;101599.00;5058854;28;20004;-60
2023/08/18 06:40:11;;;;;;;;;;;;;;;16.97;100.00;101595.44;5056186;28;19909;-60
2023/08/18 06:42:36;;;;;;;;;;;;;;;16.96;100.00;101595.44;5061853;28;20062;-60
2023/08/18 06:45:01;;;;;;;;;;;;;;;16.98;100.00;101602.50;5058877;28;19928;-60
2023/08/18 06:47:26;;;;;;;;;;;;;;;16.99;100.00;101598.13;5059162;28;20086;-60
2023/08/18 06:49:51;;;;;;;;;;;;;;;17.00;100.00;101600.78;5052247;28;19963;-60
2023/08/18 06:52:17;;;;;;;;;;;;;;;17.01;100.00;101593.75;5054907;28;19913;-60
2023/08/18 06:54:43;;;;;;;;;;;;;;;17.06;100.00;101605.22;5036514;28;20138;-60
2023/08/18 06:57:08;;;;;;;;;;;;;;;17.06;100.00;101602.59;5056886;28;19915;-60
2023/08/18 06:59:33;;;;;;;;;;;;;;;17.11;100.00;101592.09;5059069;28;19913;-60
2023/08/18 07:01:58;;;;;;;;;;;;;;;17.18;100.00;101596.53;5056924;28;19916;-60
2023/08/18 07:04:24;;;;;;;;;;;;;;;17.20;100.00;101595.66;5054040;28;19935;-60
2023/08/18 07:06:49;;;;;;;;;;;;;;;17.24;100.00;101599.22;5058036;28;19909;-60
2023/08/18 07:09:14;;;;;;;;;;;;;;;17.25;100.00;101598.34;5058194;28;19909;-60
2023/08/18 07:11:39;;;;;;;;;;;;;;;17.27;100.00;101593.09;5039187;28;19916;-60
2023/08/18 07:14:04;;;;;;;;;;;;;;;17.30;100.00;101591.34;5059756;28;19955;-60
2023/08/18 07:16:30;;;;;;;;;;;;;;;17.31;100.00;101586.97;5060711;28;20173;-60
2023/08/18 07:18:55;;;;;;;;;;;;;;;17.31;100.00;101579.09;5055506;28;20066;-60
2023/08/18 07:21:20;;;;;;;;;;;;;;;17.34;100.00;101582.59;5059724;28;19909;-60
2023/08/18 07:23:46;;;;;;;;;;;;;;;17.36;100.00;101585.25;5055047;28;19992;-60
2023/08/18 07:26:11;;;;;;;;;;;;;;;17.38;100.00;101586.16;5055117;28;19959;-60
2023/08/18 07:28:36;;;;;;;;;;;;;;;17.41;100.00;101591.44;5057453;28;19909;-60
2023/08/18 07:31:03;;;;;;;;;;;;;;;17.47;100.00;101588.84;5061055;28;19908;-60
2023/08/18 07:33:28;;;;;;;;;;;;;;;17.48;100.00;101587.97;5059152;28;19915;-60
2023/08/18 07:35:53;;;;;;;;;;;;;;;17.49;100.00;101588.84;5062996;28;19908;-60
2023/08/18 07:38:18;;;;;;;;;;;;;;;17.51;100.00;101598.53;5060486;28;19946;-60
2023/08/18 07:40:44;;;;;;;;;;;;;;;17.51;100.00;101598.53;5063336;28;20074;-60
2023/08/18 07:43:09;;;;;;;;;;;;;;;17.50;100.00;101586.22;5061338;28;20170;-60
2023/08/18 07:45:35;;;;;;;;;;;;;;;17.50;100.00;101585.34;5062975;28;19908;-60
2023/08/18 07:48:01;;;;;;;;;;;;;;;17.47;100.00;101588.84;5042409;28;20023;-60
2023/08/18 07:50:27;;;;;;;;;;;;;;;17.44;100.00;101588.81;5059197;28;20054;-61
2023/08/18 07:52:52;;;;;;;;;;;;;;;17.44;100.00;101590.56;5057651;28;21263;-61
2023/08/18 07:55:18;;;;;;;;;;;;;;;17.49;100.00;101600.25;5056993;28;19924;-60
2023/08/18 07:57:43;;;;;;;;;;;;;;;17.51;100.00;101598.53;5056848;28;19936;-60
2023/08/18 08:00:19;;;;;;;;;;;;;;;17.58;100.00;101603.84;5058214;28;19909;-60
2023/08/18 08:02:44;;;;;;;;;;;;;;;17.64;100.00;101603.88;5063601;28;20058;-60
2023/08/18 08:05:10;;;;;;;;;;;;;;;17.65;100.00;101608.28;5061462;28;19912;-60
2023/08/18 08:07:35;;;;;;;;;;;;;;;17.62;100.00;101608.28;5050400;28;19940;-60
2023/08/18 08:10:03;;;;;;;;;;;;;;;17.60;100.00;101607.34;5054949;28;19905;-60
2023/08/18 08:12:29;;;;;;;;;;;;;;;17.56;100.00;101602.06;5057911;28;19909;-60
2023/08/18 08:14:54;;;;;;;;;;;;;;;17.61;100.00;101604.75;5065307;28;19911;-61
2023/08/18 08:17:19;;;;;;;;;;;;;;;17.66;100.00;101599.50;5054287;28;19950;-61
2023/08/18 08:19:45;;;;;;;;;;;;;;;17.69;100.00;101602.16;5065704;28;19942;-61
2023/08/18 08:22:10;;;;;;;;;;;;;;;17.73;100.00;101601.31;5065684;28;19909;-60
2023/08/18 08:24:35;;;;;;;;;;;;;;;17.79;100.00;101603.97;5064069;28;19916;-61
2023/08/18 08:27:00;;;;;;;;;;;;;;;17.81;100.00;101614.53;5062016;28;19931;-61
2023/08/18 08:29:25;;;;;;;;;;;;;;;17.81;100.00;101610.13;5055788;28;20158;-61
2023/08/18 08:31:51;;;;;;;;;;;;;;;17.83;100.00;101610.13;5054521;28;19912;-60
2023/08/18 08:34:16;;;;;;;;;;;;;;;17.86;100.00;101605.78;5064722;28;19908;-60
2023/08/18 08:36:41;;;;;;;;;;;;;;;17.89;100.00;101612.84;5062880;28;19917;-61
2023/08/18 08:39:08;;;;;;;;;;;;;;;17.94;100.00;101620.78;5064724;28;19911;-61
2023/08/18 08:41:34;;;;;;;;;;;;;;;17.96;100.00;101619.94;5063829;28;19947;-61
2023/08/18 08:43:59;;;;;;;;;;;;;;;17.97;100.00;101629.59;5059601;28;20194;-60
2023/08/18 08:46:24;;;;;;;;;;;;;;;17.99;100.00;101627.88;5058681;28;20059;-61
2023/08/18 08:48:51;;;;;;;;;;;;;;;18.05;100.00;101627.03;5059206;28;19983;-60
2023/08/18 08:51:18;;;;;;;;;;;;;;;18.06;100.00;101626.13;5056672;28;19917;-61
2023/08/18 08:53:46;;;;;;;;;;;;;;;18.13;100.00;101624.41;5056625;28;20070;-61
2023/08/18 08:56:13;;;;;;;;;;;;;;;18.18;100.00;101627.97;5058754;28;20093;-60
2023/08/18 08:58:39;;;;;;;;;;;;;;;18.15;100.00;101628.81;5057667;28;20204;-61
2023/08/18 09:01:06;;;;;;;;;;;;;;;18.17;100.00;101627.06;5056914;28;19920;-62
2023/08/18 09:03:32;;;;;;;;;;;;;;;18.20;100.00;101621.78;5058510;28;19934;-61
2023/08/18 09:05:58;;;;;;;;;;;;;;;18.21;100.00;101626.19;5055951;28;19909;-61
2023/08/18 09:08:23;;;;;;;;;;;;;;;18.24;100.00;101631.50;5059212;28;20054;-61
2023/08/18 09:10:48;;;;;;;;;;;;;;;18.20;100.00;101632.34;5057646;28;19963;-61
2023/08/18 09:13:13;;;;;;;;;;;;;;;18.21;100.00;101634.13;5059378;28;19908;-60
2023/08/18 09:15:44;;;;;;;;;;;;;;;18.27;100.00;101640.31;5056522;28;20160;-61
2023/08/18 09:18:10;;;;;;;;;;;;;;;18.27;100.00;101632.41;5056021;28;19920;-61
2023/08/18 09:20:36;;;;;;;;;;;;;;;18.27;100.00;101628.00;5055361;28;20161;-61
2023/08/18 09:23:01;;;;;;;;;;;;;;;18.29;100.00;101633.28;5061749;28;20158;-62
2023/08/18 09:25:26;;;;;;;;;;;;;;;18.30;100.00;101627.13;5053501;28;20166;-61
2023/08/18 09:27:51;;;;;;;;;;;;;;;18.30;100.00;101616.56;5061186;28;21068;-60
2023/08/18 09:30:16;;;;;;;;;;;;;;;18.33;100.00;101619.22;5060865;28;19909;-60
2023/08/18 09:32:42;;;;;;;;;;;;;;;18.38;100.00;101615.72;5057460;28;19944;-61
2023/08/18 09:35:11;;;;;;;;;;;;;;;18.41;100.00;101614.88;5059173;28;19916;-61
2023/08/18 09:37:36;;;;;;;;;;;;;;;18.43;100.00;101610.47;5059272;28;20541;-61
2023/08/18 09:40:02;;;;;;;;;;;;;;;18.45;100.00;101610.47;5060065;28;19917;-61
2023/08/18 09:42:28;;;;;;;;;;;;;;;18.50;100.00;101611.38;5061837;28;20121;-62
2023/08/18 09:44:53;;;;;;;;;;;;;;;18.55;100.00;101613.16;5059119;28;19955;-61
2023/08/18 09:47:19;;;;;;;;;;;;;;;18.55;100.00;101612.25;5060439;28;19925;-61
2023/08/18 09:49:46;;;;;;;;;;;;;;;18.49;100.00;101606.97;5057205;28;19920;-61
2023/08/18 09:52:14;;;;;;;;;;;;;;;18.53;100.00;101603.47;5056674;28;19908;-61
2023/08/18 09:54:59;;;;;;;;;;;;;;;18.54;100.00;101608.75;5059605;28;19960;-62
2023/08/18 09:57:30;;;;;;;;;;;;;;;18.57;100.00;101611.38;5057753;28;19932;-62
2023/08/18 09:59:56;;;;;;;;;;;;;;;18.59;100.00;101599.06;5039846;28;19920;-61
2023/08/18 10:02:22;;;;;;;;;;;;;;;18.66;100.00;101601.75;5059701;28;19908;-61
2023/08/18 10:04:48;;;;;;;;;;;;;;;18.71;100.00;101598.22;5061635;28;19996;-62
2023/08/18 10:07:15;;;;;;;;;;;;;;;18.76;100.00;101596.47;5061264;28;20150;-61
2023/08/18 10:09:41;;;;;;;;;;;;;;;18.83;100.00;101604.38;5057518;28;19921;-62
2023/08/18 10:12:06;;;;;;;;;;;;;;;18.91;100.00;101600.91;5058432;28;20000;-62
2023/08/18 10:14:32;;;;;;;;;;;;;;;18.88;100.00;101595.63;5056217;28;20070;-62
2023/08/18 10:16:59;;;;;;;;;;;;;;;18.89;100.00;101594.75;5057305;28;19929;-62
2023/08/18 10:19:43;;;;;;;;;;;;;;;19.01;100.00;101593.00;5060842;28;19916;-62
2023/08/18 10:22:08;;;;;;;;;;;;;;;19.13;100.00;101589.50;5056619;28;19950;-62
2023/08/18 10:24:36;;;;;;;;;;;;;;;19.21;100.00;101587.75;5057987;28;19924;-62
2023/08/18 10:27:01;;;;;;;;;;;;;;;19.25;100.00;101577.16;5056999;28;19932;-62
2023/08/18 10:29:26;;;;;;;;;;;;;;;19.31;100.00;101575.41;5059514;28;20067;-62
2023/08/18 10:31:53;;;;;;;;;;;;;;;19.39;100.00;101570.97;5059936;28;19915;-62
2023/08/18 10:34:19;;;;;;;;;;;;;;;19.46;100.00;101570.97;5060427;28;19915;-62
2023/08/18 10:36:45;;;;;;;;;;;;;;;19.54;100.00;101565.69;5058961;28;19944;-62
2023/08/18 10:39:26;;;;;;;;;;;;;;;19.64;100.00;101563.91;5058117;28;19967;-62
2023/08/18 10:42:05;;;;;;;;;;;;;;;19.72;100.00;101570.03;5060754;28;19915;-62
2023/08/18 10:44:30;;;;;;;;;;;;;;;19.83;100.00;101566.50;5058672;28;19909;-62
2023/08/18 10:46:56;;;;;;;;;;;;;;;19.89;100.00;101564.72;5060233;28;19972;-62
2023/08/18 10:49:22;;;;;;;;;;;;;;;19.95;100.00;101564.69;5055750;28;19944;-62
2023/08/18 10:51:49;;;;;;;;;;;;;;;19.96;100.00;101568.25;5060966;28;19925;-62
2023/08/18 10:54:14;;;;;;;;;;;;;;;19.97;100.00;101562.03;5058159;28;19920;-62
2023/08/18 10:56:39;;;;;;;;;;;;;;;19.98;100.00;101558.50;5043349;28;20077;-62
2023/08/18 10:59:05;;;;;;;;;;;;;;;19.95;100.00;101562.03;5056731;28;20091;-62
2023/08/18 11:01:30;;;;;;;;;;;;;;;20.00;100.00;101559.38;5058964;28;19908;-62
2023/08/18 11:03:57;;;;;;;;;;;;;;;20.05;100.00;101547.03;5040028;28;19912;-62
2023/08/18 11:06:26;;;;;;;;;;;;;;;20.17;100.00;101546.06;5061139;28;20074;-62
2023/08/18 11:08:52;;;;;;;;;;;;;;;20.22;100.00;101543.41;5058968;28;19909;-62
2023/08/18 11:11:18;;;;;;;;;;;;;;;20.19;100.00;101536.38;5056118;28;19912;-62
2023/08/18 11:13:44;;;;;;;;;;;;;;;20.27;100.00;101536.34;5053530;28;20093;-62
2023/08/18 11:16:09;;;;;;;;;;;;;;;20.39;100.00;101532.72;5060241;28;19935;-62
2023/08/18 11:18:34;;;;;;;;;;;;;;;20.51;100.00;101522.06;5059042;28;19908;-62
2023/08/18 11:21:00;;;;;;;;;;;;;;;20.66;100.00;101523.72;5058695;28;19909;-62
2023/08/18 11:23:26;;;;;;;;;;;;;;;20.73;100.00;101521.94;5058000;28;19913;-63
2023/08/18 11:25:51;;;;;;;;;;;;;;;20.82;100.00;101521.88;5060412;28;19981;-62
2023/08/18 11:28:17;;;;;;;;;;;;;;;20.91;100.00;101524.44;5058212;28;20221;-62
2023/08/18 11:30:42;;;;;;;;;;;;;;;21.05;100.00;101523.44;5058739;28;19916;-63
2023/08/18 11:33:08;;;;;;;;;;;;;;;21.07;99.31;101514.56;5058632;28;19959;-63
2023/08/18 11:35:34;;;;;;;;;;;;;;;21.15;100.00;101517.16;5055792;28;20135;-62
2023/08/18 11:37:59;;;;;;;;;;;;;;;21.29;99.07;101506.41;5059301;28;19912;-63
2023/08/18 11:40:24;;;;;;;;;;;;;;;21.37;99.78;101502.78;5059002;28;19913;-62
2023/08/18 11:42:51;;;;;;;;;;;;;;;21.54;99.11;101502.63;5059682;28;19913;-63
2023/08/18 11:45:17;;;;;;;;;;;;;;;21.67;99.14;101505.16;5055181;28;19929;-63
2023/08/18 11:47:43;;;;;;;;;;;;;;;21.66;97.37;101504.25;5041811;28;19943;-63
2023/08/18 11:50:09;;;;;;;;;;;;;;;21.62;98.50;101507.84;5059088;28;20151;-62
2023/08/18 11:52:41;;;;;;;;;;;;;;;21.67;98.02;101490.13;5060944;28;19991;-62
2023/08/18 11:55:08;;;;;;;;;;;;;;;21.70;97.20;101490.06;5059465;28;19909;-62
2023/08/18 11:57:33;;;;;;;;;;;;;;;21.80;97.49;101488.19;5061069;28;19908;-62
2023/08/18 11:59:58;;;;;;;;;;;;;;;21.83;97.67;101479.31;5060252;28;19924;-62
2023/08/18 12:02:26;;;;;;;;;;;;;;;21.97;98.48;101484.41;5058386;28;20177;-62
2023/08/18 12:04:52;;;;;;;;;;;;;;;22.08;98.19;101479.84;5057719;28;19909;-62
2023/08/18 12:07:18;;;;;;;;;;;;;;;22.24;97.70;101483.16;5060904;28;20059;-62
2023/08/18 12:09:43;;;;;;;;;;;;;;;22.31;97.53;101476.00;5059196;28;19920;-62
2023/08/18 12:12:13;;;;;;;;;;;;;;;22.58;97.94;101480.91;5059591;28;19929;-62
2023/08/18 12:14:38;;;;;;;;;;;;;;;22.85;96.79;101478.66;5057642;28;20065;-62
2023/08/18 12:17:03;;;;;;;;;;;;;;;23.08;95.79;101467.63;5062564;28;19909;-62
2023/08/18 12:19:28;;;;;;;;;;;;;;;23.26;95.00;101462.91;5061732;28;19915;-62
2023/08/18 12:21:53;;;;;;;;;;;;;;;23.23;91.85;101462.94;5063320;28;20223;-62